Preview of NWS' New Version of Forecast
This preview is not operational and should not be used for support decisions.

Terminal Aerodrome Forecast (TAF)

Issued by National Weather Service (NWS)

                            
000
FTUS46 KMFR 181735
TAFRBG
TAF
KRBG 181735Z 1818/1918 01004KT P6SM SKC
     FM182200 36009KT P6SM SKC
     FM190400 35004KT P6SM SKC=